sensor_id;sensor_type;location;lat;lon;timestamp;P1;durP1;ratioP1;P2;durP2;ratioP2
18917;SDS011;9591;52.742;13.650;2023-10-31T00:00:35;10.33;;;4.07;;
18917;SDS011;9591;52.742;13.650;2023-10-31T00:03:22;10.27;;;4.07;;
18917;SDS011;9591;52.742;13.650;2023-10-31T00:06:09;8.53;;;4.20;;
18917;SDS011;9591;52.742;13.650;2023-10-31T00:08:56;8.47;;;4.37;;
18917;SDS011;9591;52.742;13.650;2023-10-31T00:11:43;7.17;;;3.93;;
18917;SDS011;9591;52.742;13.650;2023-10-31T00:14:31;8.67;;;3.97;;
18917;SDS011;9591;52.742;13.650;2023-10-31T00:17:18;11.47;;;4.30;;
18917;SDS011;9591;52.742;13.650;2023-10-31T00:20:06;19.13;;;5.17;;
18917;SDS011;9591;52.742;13.650;2023-10-31T00:22:53;13.33;;;4.43;;
18917;SDS011;9591;52.742;13.650;2023-10-31T00:25:41;18.40;;;4.47;;
18917;SDS011;9591;52.742;13.650;2023-10-31T00:28:27;11.00;;;4.30;;
18917;SDS011;9591;52.742;13.650;2023-10-31T00:31:16;11.43;;;3.63;;
18917;SDS011;9591;52.742;13.650;2023-10-31T00:34:03;10.00;;;3.93;;
18917;SDS011;9591;52.742;13.650;2023-10-31T00:36:50;7.63;;;3.83;;
18917;SDS011;9591;52.742;13.650;2023-10-31T00:39:39;15.23;;;5.07;;
18917;SDS011;9591;52.742;13.650;2023-10-31T00:42:26;10.27;;;4.00;;
18917;SDS011;9591;52.742;13.650;2023-10-31T00:45:18;7.20;;;3.57;;
18917;SDS011;9591;52.742;13.650;2023-10-31T00:48:07;9.17;;;3.87;;
18917;SDS011;9591;52.742;13.650;2023-10-31T00:50:53;11.77;;;4.10;;
18917;SDS011;9591;52.742;13.650;2023-10-31T00:53:40;12.57;;;3.70;;
18917;SDS011;9591;52.742;13.650;2023-10-31T00:56:27;9.30;;;3.70;;
18917;SDS011;9591;52.742;13.650;2023-10-31T00:59:15;10.37;;;4.07;;
18917;SDS011;9591;52.742;13.650;2023-10-31T01:02:02;7.93;;;3.73;;
18917;SDS011;9591;52.742;13.650;2023-10-31T01:04:53;13.70;;;4.20;;
18917;SDS011;9591;52.742;13.650;2023-10-31T01:07:41;8.63;;;3.80;;
18917;SDS011;9591;52.742;13.650;2023-10-31T01:10:28;8.07;;;3.90;;
18917;SDS011;9591;52.742;13.650;2023-10-31T01:13:15;7.97;;;4.13;;
18917;SDS011;9591;52.742;13.650;2023-10-31T01:16:03;12.80;;;3.67;;
18917;SDS011;9591;52.742;13.650;2023-10-31T01:18:50;11.93;;;4.73;;
18917;SDS011;9591;52.742;13.650;2023-10-31T01:21:38;12.97;;;3.90;;
18917;SDS011;9591;52.742;13.650;2023-10-31T01:24:26;9.50;;;3.90;;
18917;SDS011;9591;52.742;13.650;2023-10-31T01:27:12;11.53;;;4.10;;
18917;SDS011;9591;52.742;13.650;2023-10-31T01:29:59;6.53;;;3.80;;
18917;SDS011;9591;52.742;13.650;2023-10-31T01:32:46;5.27;;;3.73;;
18917;SDS011;9591;52.742;13.650;2023-10-31T01:35:33;8.83;;;3.97;;
18917;SDS011;9591;52.742;13.650;2023-10-31T01:38:23;8.97;;;4.33;;
18917;SDS011;9591;52.742;13.650;2023-10-31T01:41:10;12.27;;;3.80;;
18917;SDS011;9591;52.742;13.650;2023-10-31T01:43:57;15.93;;;4.37;;
18917;SDS011;9591;52.742;13.650;2023-10-31T01:46:44;9.50;;;4.17;;
18917;SDS011;9591;52.742;13.650;2023-10-31T01:49:31;10.20;;;3.97;;
18917;SDS011;9591;52.742;13.650;2023-10-31T01:52:18;12.40;;;4.43;;
18917;SDS011;9591;52.742;13.650;2023-10-31T01:55:06;15.27;;;5.90;;
18917;SDS011;9591;52.742;13.650;2023-10-31T01:57:55;11.07;;;4.40;;
18917;SDS011;9591;52.742;13.650;2023-10-31T02:00:42;10.77;;;4.33;;
18917;SDS011;9591;52.742;13.650;2023-10-31T02:03:30;9.00;;;4.33;;
18917;SDS011;9591;52.742;13.650;2023-10-31T02:06:18;9.80;;;4.10;;
18917;SDS011;9591;52.742;13.650;2023-10-31T02:09:07;10.60;;;4.27;;
18917;SDS011;9591;52.742;13.650;2023-10-31T02:11:55;10.87;;;4.20;;
18917;SDS011;9591;52.742;13.650;2023-10-31T02:14:43;15.00;;;4.70;;
18917;SDS011;9591;52.742;13.650;2023-10-31T02:17:30;12.17;;;4.20;;
18917;SDS011;9591;52.742;13.650;2023-10-31T02:20:17;7.97;;;4.27;;
18917;SDS011;9591;52.742;13.650;2023-10-31T02:23:05;14.93;;;4.73;;
18917;SDS011;9591;52.742;13.650;2023-10-31T02:25:52;14.07;;;4.43;;
18917;SDS011;9591;52.742;13.650;2023-10-31T02:28:39;6.00;;;4.50;;
18917;SDS011;9591;52.742;13.650;2023-10-31T02:31:26;6.87;;;4.27;;
18917;SDS011;9591;52.742;13.650;2023-10-31T02:34:13;13.53;;;4.30;;
18917;SDS011;9591;52.742;13.650;2023-10-31T02:37:00;11.23;;;4.70;;
18917;SDS011;9591;52.742;13.650;2023-10-31T02:39:49;11.07;;;5.00;;
18917;SDS011;9591;52.742;13.650;2023-10-31T02:42:36;7.50;;;4.03;;
18917;SDS011;9591;52.742;13.650;2023-10-31T02:45:23;14.60;;;4.97;;
18917;SDS011;9591;52.742;13.650;2023-10-31T02:48:10;13.50;;;4.93;;
18917;SDS011;9591;52.742;13.650;2023-10-31T02:50:57;10.90;;;5.10;;
18917;SDS011;9591;52.742;13.650;2023-10-31T02:53:44;16.03;;;4.53;;
18917;SDS011;9591;52.742;13.650;2023-10-31T02:56:33;6.87;;;4.43;;
18917;SDS011;9591;52.742;13.650;2023-10-31T02:59:21;11.27;;;4.57;;
18917;SDS011;9591;52.742;13.650;2023-10-31T03:02:08;10.20;;;4.40;;
18917;SDS011;9591;52.742;13.650;2023-10-31T03:04:56;13.73;;;4.30;;
18917;SDS011;9591;52.742;13.650;2023-10-31T03:07:44;10.77;;;4.20;;
18917;SDS011;9591;52.742;13.650;2023-10-31T03:10:31;9.83;;;4.10;;
18917;SDS011;9591;52.742;13.650;2023-10-31T03:13:19;6.17;;;4.40;;
18917;SDS011;9591;52.742;13.650;2023-10-31T03:16:06;9.37;;;4.43;;
18917;SDS011;9591;52.742;13.650;2023-10-31T03:18:53;8.03;;;4.60;;
18917;SDS011;9591;52.742;13.650;2023-10-31T03:21:40;14.80;;;4.93;;
18917;SDS011;9591;52.742;13.650;2023-10-31T03:24:27;12.70;;;5.07;;
18917;SDS011;9591;52.742;13.650;2023-10-31T03:27:17;10.20;;;4.97;;
18917;SDS011;9591;52.742;13.650;2023-10-31T03:30:05;9.80;;;5.07;;
18917;SDS011;9591;52.742;13.650;2023-10-31T03:32:53;12.57;;;5.23;;
18917;SDS011;9591;52.742;13.650;2023-10-31T03:35:40;14.43;;;4.80;;
18917;SDS011;9591;52.742;13.650;2023-10-31T03:38:27;14.40;;;5.13;;
18917;SDS011;9591;52.742;13.650;2023-10-31T03:41:14;8.27;;;5.07;;
18917;SDS011;9591;52.742;13.650;2023-10-31T03:44:01;15.90;;;5.17;;
18917;SDS011;9591;52.742;13.650;2023-10-31T03:46:49;11.30;;;4.60;;
18917;SDS011;9591;52.742;13.650;2023-10-31T03:49:37;9.73;;;4.67;;
18917;SDS011;9591;52.742;13.650;2023-10-31T03:52:24;15.93;;;5.13;;
18917;SDS011;9591;52.742;13.650;2023-10-31T03:55:11;8.10;;;5.03;;
18917;SDS011;9591;52.742;13.650;2023-10-31T03:57:58;9.37;;;5.10;;
18917;SDS011;9591;52.742;13.650;2023-10-31T04:00:45;8.57;;;4.77;;
18917;SDS011;9591;52.742;13.650;2023-10-31T04:03:33;11.27;;;5.33;;
18917;SDS011;9591;52.742;13.650;2023-10-31T04:06:20;8.87;;;5.40;;
18917;SDS011;9591;52.742;13.650;2023-10-31T04:09:07;15.80;;;5.90;;
18917;SDS011;9591;52.742;13.650;2023-10-31T04:11:55;13.47;;;5.57;;
18917;SDS011;9591;52.742;13.650;2023-10-31T04:14:42;10.80;;;5.80;;
18917;SDS011;9591;52.742;13.650;2023-10-31T04:17:29;13.77;;;5.70;;
18917;SDS011;9591;52.742;13.650;2023-10-31T04:20:17;13.90;;;5.97;;
18917;SDS011;9591;52.742;13.650;2023-10-31T04:23:04;13.67;;;5.97;;
18917;SDS011;9591;52.742;13.650;2023-10-31T04:25:52;10.13;;;6.00;;
18917;SDS011;9591;52.742;13.650;2023-10-31T04:28:39;11.43;;;5.57;;
18917;SDS011;9591;52.742;13.650;2023-10-31T04:31:25;10.37;;;6.10;;
18917;SDS011;9591;52.742;13.650;2023-10-31T04:34:25;10.87;;;5.67;;
18917;SDS011;9591;52.742;13.650;2023-10-31T04:37:13;12.17;;;6.00;;
18917;SDS011;9591;52.742;13.650;2023-10-31T04:40:00;23.47;;;6.80;;
18917;SDS011;9591;52.742;13.650;2023-10-31T04:42:48;15.83;;;5.93;;
18917;SDS011;9591;52.742;13.650;2023-10-31T04:45:35;12.03;;;6.40;;
18917;SDS011;9591;52.742;13.650;2023-10-31T04:48:22;11.30;;;6.00;;
18917;SDS011;9591;52.742;13.650;2023-10-31T04:51:09;13.17;;;6.37;;
18917;SDS011;9591;52.742;13.650;2023-10-31T04:53:57;11.83;;;5.93;;
18917;SDS011;9591;52.742;13.650;2023-10-31T04:56:44;14.40;;;6.87;;
18917;SDS011;9591;52.742;13.650;2023-10-31T04:59:31;16.80;;;6.27;;
18917;SDS011;9591;52.742;13.650;2023-10-31T05:02:18;15.50;;;6.33;;
18917;SDS011;9591;52.742;13.650;2023-10-31T05:05:08;18.50;;;7.00;;
18917;SDS011;9591;52.742;13.650;2023-10-31T05:07:54;16.63;;;6.90;;
18917;SDS011;9591;52.742;13.650;2023-10-31T05:10:43;12.30;;;6.63;;
18917;SDS011;9591;52.742;13.650;2023-10-31T05:13:32;19.00;;;7.00;;
18917;SDS011;9591;52.742;13.650;2023-10-31T05:16:19;16.57;;;7.27;;
18917;SDS011;9591;52.742;13.650;2023-10-31T05:19:06;11.13;;;6.80;;
18917;SDS011;9591;52.742;13.650;2023-10-31T05:21:53;15.57;;;6.63;;
18917;SDS011;9591;52.742;13.650;2023-10-31T05:24:40;14.13;;;7.80;;
18917;SDS011;9591;52.742;13.650;2023-10-31T05:27:28;14.77;;;6.77;;
18917;SDS011;9591;52.742;13.650;2023-10-31T05:30:18;15.90;;;7.10;;
18917;SDS011;9591;52.742;13.650;2023-10-31T05:33:05;16.17;;;6.53;;
18917;SDS011;9591;52.742;13.650;2023-10-31T05:35:52;13.03;;;7.33;;
18917;SDS011;9591;52.742;13.650;2023-10-31T05:38:39;21.23;;;8.33;;
18917;SDS011;9591;52.742;13.650;2023-10-31T05:41:26;13.57;;;7.17;;
18917;SDS011;9591;52.742;13.650;2023-10-31T05:44:14;19.17;;;6.43;;
18917;SDS011;9591;52.742;13.650;2023-10-31T05:47:02;17.13;;;7.70;;
18917;SDS011;9591;52.742;13.650;2023-10-31T05:49:49;11.37;;;6.80;;
18917;SDS011;9591;52.742;13.650;2023-10-31T05:52:36;16.40;;;6.83;;
18917;SDS011;9591;52.742;13.650;2023-10-31T05:55:23;16.77;;;7.10;;
18917;SDS011;9591;52.742;13.650;2023-10-31T05:58:10;13.63;;;7.20;;
18917;SDS011;9591;52.742;13.650;2023-10-31T06:00:59;13.13;;;6.63;;
18917;SDS011;9591;52.742;13.650;2023-10-31T06:03:46;8.57;;;5.07;;
18917;SDS011;9591;52.742;13.650;2023-10-31T06:06:33;15.30;;;5.93;;
18917;SDS011;9591;52.742;13.650;2023-10-31T06:09:23;12.77;;;5.60;;
18917;SDS011;9591;52.742;13.650;2023-10-31T06:12:10;7.90;;;5.57;;
18917;SDS011;9591;52.742;13.650;2023-10-31T06:14:57;11.47;;;5.23;;
18917;SDS011;9591;52.742;13.650;2023-10-31T06:17:45;9.13;;;5.37;;
18917;SDS011;9591;52.742;13.650;2023-10-31T06:20:32;8.53;;;4.73;;
18917;SDS011;9591;52.742;13.650;2023-10-31T06:23:20;7.23;;;4.43;;
18917;SDS011;9591;52.742;13.650;2023-10-31T06:26:07;9.73;;;4.70;;
18917;SDS011;9591;52.742;13.650;2023-10-31T06:28:54;8.63;;;4.73;;
18917;SDS011;9591;52.742;13.650;2023-10-31T06:32:00;6.03;;;3.60;;
18917;SDS011;9591;52.742;13.650;2023-10-31T06:34:49;5.83;;;4.20;;
18917;SDS011;9591;52.742;13.650;2023-10-31T06:37:36;8.07;;;4.60;;
18917;SDS011;9591;52.742;13.650;2023-10-31T06:40:23;6.67;;;4.23;;
18917;SDS011;9591;52.742;13.650;2023-10-31T06:43:10;6.57;;;4.07;;
18917;SDS011;9591;52.742;13.650;2023-10-31T06:45:57;5.30;;;3.57;;
18917;SDS011;9591;52.742;13.650;2023-10-31T06:48:46;7.67;;;3.90;;
18917;SDS011;9591;52.742;13.650;2023-10-31T06:51:34;7.87;;;4.20;;
18917;SDS011;9591;52.742;13.650;2023-10-31T06:54:21;4.33;;;3.60;;
18917;SDS011;9591;52.742;13.650;2023-10-31T06:57:08;10.77;;;3.90;;
18917;SDS011;9591;52.742;13.650;2023-10-31T06:59:55;7.60;;;3.93;;
18917;SDS011;9591;52.742;13.650;2023-10-31T07:02:42;5.37;;;4.00;;
18917;SDS011;9591;52.742;13.650;2023-10-31T07:05:29;5.97;;;3.97;;
18917;SDS011;9591;52.742;13.650;2023-10-31T07:08:17;8.03;;;4.73;;
18917;SDS011;9591;52.742;13.650;2023-10-31T07:11:04;7.93;;;4.70;;
18917;SDS011;9591;52.742;13.650;2023-10-31T07:13:51;9.30;;;5.33;;
18917;SDS011;9591;52.742;13.650;2023-10-31T07:16:38;9.77;;;4.77;;
18917;SDS011;9591;52.742;13.650;2023-10-31T07:19:25;15.33;;;5.23;;
18917;SDS011;9591;52.742;13.650;2023-10-31T07:22:12;6.23;;;4.63;;
18917;SDS011;9591;52.742;13.650;2023-10-31T07:25:01;8.13;;;4.57;;
18917;SDS011;9591;52.742;13.650;2023-10-31T07:27:49;6.33;;;4.27;;
18917;SDS011;9591;52.742;13.650;2023-10-31T07:30:35;10.43;;;4.43;;
18917;SDS011;9591;52.742;13.650;2023-10-31T07:33:23;8.40;;;4.10;;
18917;SDS011;9591;52.742;13.650;2023-10-31T07:36:10;6.33;;;3.47;;
18917;SDS011;9591;52.742;13.650;2023-10-31T07:38:57;8.13;;;3.60;;
18917;SDS011;9591;52.742;13.650;2023-10-31T07:41:45;4.43;;;3.50;;
18917;SDS011;9591;52.742;13.650;2023-10-31T07:44:32;5.90;;;3.67;;
18917;SDS011;9591;52.742;13.650;2023-10-31T07:47:19;10.57;;;4.67;;
18917;SDS011;9591;52.742;13.650;2023-10-31T07:50:06;6.00;;;3.60;;
18917;SDS011;9591;52.742;13.650;2023-10-31T07:52:54;6.83;;;3.60;;
18917;SDS011;9591;52.742;13.650;2023-10-31T07:55:41;5.70;;;3.97;;
18917;SDS011;9591;52.742;13.650;2023-10-31T07:58:30;12.40;;;3.30;;
18917;SDS011;9591;52.742;13.650;2023-10-31T08:01:17;8.03;;;4.10;;
18917;SDS011;9591;52.742;13.650;2023-10-31T08:04:04;4.27;;;3.27;;
18917;SDS011;9591;52.742;13.650;2023-10-31T08:06:51;5.03;;;2.90;;
18917;SDS011;9591;52.742;13.650;2023-10-31T08:09:38;4.67;;;3.37;;
18917;SDS011;9591;52.742;13.650;2023-10-31T08:12:25;6.57;;;3.00;;
18917;SDS011;9591;52.742;13.650;2023-10-31T08:15:14;3.63;;;2.87;;
18917;SDS011;9591;52.742;13.650;2023-10-31T08:18:04;3.10;;;2.80;;
18917;SDS011;9591;52.742;13.650;2023-10-31T08:20:51;3.70;;;2.60;;
18917;SDS011;9591;52.742;13.650;2023-10-31T08:23:38;2.90;;;2.70;;
18917;SDS011;9591;52.742;13.650;2023-10-31T08:26:25;3.80;;;2.97;;
18917;SDS011;9591;52.742;13.650;2023-10-31T08:29:12;5.57;;;2.60;;
18917;SDS011;9591;52.742;13.650;2023-10-31T08:32:00;3.50;;;2.40;;
18917;SDS011;9591;52.742;13.650;2023-10-31T08:34:47;2.20;;;2.00;;
18917;SDS011;9591;52.742;13.650;2023-10-31T08:37:34;3.50;;;2.10;;
18917;SDS011;9591;52.742;13.650;2023-10-31T08:40:22;6.87;;;2.10;;
18917;SDS011;9591;52.742;13.650;2023-10-31T08:43:13;2.33;;;1.80;;
18917;SDS011;9591;52.742;13.650;2023-10-31T08:46:00;1.90;;;1.80;;
18917;SDS011;9591;52.742;13.650;2023-10-31T08:48:48;4.43;;;1.80;;
18917;SDS011;9591;52.742;13.650;2023-10-31T08:51:35;2.90;;;1.70;;
18917;SDS011;9591;52.742;13.650;2023-10-31T08:54:22;3.53;;;1.60;;
18917;SDS011;9591;52.742;13.650;2023-10-31T08:57:09;1.50;;;1.40;;
18917;SDS011;9591;52.742;13.650;2023-10-31T08:59:56;2.50;;;1.57;;
18917;SDS011;9591;52.742;13.650;2023-10-31T09:02:43;1.60;;;1.50;;
18917;SDS011;9591;52.742;13.650;2023-10-31T09:05:31;2.00;;;1.50;;
18917;SDS011;9591;52.742;13.650;2023-10-31T09:08:19;1.43;;;1.20;;
18917;SDS011;9591;52.742;13.650;2023-10-31T09:11:08;1.10;;;1.10;;
18917;SDS011;9591;52.742;13.650;2023-10-31T09:13:54;5.70;;;1.40;;
18917;SDS011;9591;52.742;13.650;2023-10-31T09:16:42;1.27;;;1.17;;
18917;SDS011;9591;52.742;13.650;2023-10-31T09:19:29;1.67;;;1.57;;
18917;SDS011;9591;52.742;13.650;2023-10-31T09:22:17;1.27;;;1.17;;
18917;SDS011;9591;52.742;13.650;2023-10-31T09:25:04;1.13;;;1.13;;
18917;SDS011;9591;52.742;13.650;2023-10-31T09:27:52;2.03;;;0.93;;
18917;SDS011;9591;52.742;13.650;2023-10-31T09:30:38;1.00;;;1.00;;
18917;SDS011;9591;52.742;13.650;2023-10-31T09:33:28;2.57;;;1.20;;
18917;SDS011;9591;52.742;13.650;2023-10-31T09:36:15;3.37;;;1.13;;
18917;SDS011;9591;52.742;13.650;2023-10-31T09:39:06;1.10;;;1.00;;
18917;SDS011;9591;52.742;13.650;2023-10-31T09:41:54;1.00;;;1.00;;
18917;SDS011;9591;52.742;13.650;2023-10-31T09:44:45;1.00;;;1.00;;
18917;SDS011;9591;52.742;13.650;2023-10-31T09:47:32;1.10;;;1.10;;
18917;SDS011;9591;52.742;13.650;2023-10-31T09:50:19;1.10;;;1.10;;
18917;SDS011;9591;52.742;13.650;2023-10-31T09:53:08;2.87;;;0.80;;
18917;SDS011;9591;52.742;13.650;2023-10-31T09:55:57;1.40;;;1.10;;
18917;SDS011;9591;52.742;13.650;2023-10-31T09:58:44;1.17;;;1.17;;
18917;SDS011;9591;52.742;13.650;2023-10-31T10:01:31;2.93;;;1.00;;
18917;SDS011;9591;52.742;13.650;2023-10-31T10:04:18;2.77;;;1.07;;
18917;SDS011;9591;52.742;13.650;2023-10-31T10:07:05;0.90;;;0.90;;
18917;SDS011;9591;52.742;13.650;2023-10-31T10:09:55;0.90;;;0.90;;
18917;SDS011;9591;52.742;13.650;2023-10-31T10:12:43;2.43;;;0.93;;
18917;SDS011;9591;52.742;13.650;2023-10-31T10:15:42;2.23;;;0.80;;
18917;SDS011;9591;52.742;13.650;2023-10-31T10:18:30;0.90;;;0.90;;
18917;SDS011;9591;52.742;13.650;2023-10-31T10:21:20;0.90;;;0.90;;
18917;SDS011;9591;52.742;13.650;2023-10-31T10:24:07;1.50;;;0.93;;
18917;SDS011;9591;52.742;13.650;2023-10-31T10:26:55;2.33;;;1.20;;
18917;SDS011;9591;52.742;13.650;2023-10-31T10:29:44;1.17;;;1.07;;
18917;SDS011;9591;52.742;13.650;2023-10-31T10:32:31;3.53;;;1.20;;
18917;SDS011;9591;52.742;13.650;2023-10-31T10:35:18;1.43;;;0.80;;
18917;SDS011;9591;52.742;13.650;2023-10-31T10:38:05;5.20;;;1.17;;
18917;SDS011;9591;52.742;13.650;2023-10-31T10:40:57;0.80;;;0.80;;
18917;SDS011;9591;52.742;13.650;2023-10-31T10:43:45;1.30;;;0.93;;
18917;SDS011;9591;52.742;13.650;2023-10-31T10:46:37;1.03;;;1.00;;
18917;SDS011;9591;52.742;13.650;2023-10-31T10:49:26;0.80;;;0.80;;
18917;SDS011;9591;52.742;13.650;2023-10-31T10:52:22;1.33;;;1.00;;
18917;SDS011;9591;52.742;13.650;2023-10-31T10:55:14;3.80;;;0.90;;
18917;SDS011;9591;52.742;13.650;2023-10-31T10:58:08;4.47;;;1.00;;
18917;SDS011;9591;52.742;13.650;2023-10-31T11:01:01;1.10;;;1.10;;
18917;SDS011;9591;52.742;13.650;2023-10-31T11:03:49;0.97;;;0.97;;
18917;SDS011;9591;52.742;13.650;2023-10-31T11:06:37;0.80;;;0.80;;
18917;SDS011;9591;52.742;13.650;2023-10-31T11:09:26;1.07;;;1.03;;
18917;SDS011;9591;52.742;13.650;2023-10-31T11:12:12;1.73;;;1.00;;
18917;SDS011;9591;52.742;13.650;2023-10-31T11:15:01;1.00;;;0.90;;
18917;SDS011;9591;52.742;13.650;2023-10-31T11:17:49;2.50;;;1.00;;
18917;SDS011;9591;52.742;13.650;2023-10-31T11:20:39;1.00;;;1.00;;
18917;SDS011;9591;52.742;13.650;2023-10-31T11:23:27;3.60;;;1.10;;
18917;SDS011;9591;52.742;13.650;2023-10-31T11:26:13;2.90;;;1.30;;
18917;SDS011;9591;52.742;13.650;2023-10-31T11:29:03;2.73;;;1.20;;
18917;SDS011;9591;52.742;13.650;2023-10-31T11:31:51;2.07;;;1.33;;
18917;SDS011;9591;52.742;13.650;2023-10-31T11:34:39;4.30;;;1.23;;
18917;SDS011;9591;52.742;13.650;2023-10-31T11:37:32;1.57;;;1.40;;
18917;SDS011;9591;52.742;13.650;2023-10-31T11:40:21;1.40;;;1.30;;
18917;SDS011;9591;52.742;13.650;2023-10-31T11:43:08;1.33;;;1.30;;
18917;SDS011;9591;52.742;13.650;2023-10-31T11:45:57;3.10;;;1.50;;
18917;SDS011;9591;52.742;13.650;2023-10-31T11:48:46;3.13;;;1.40;;
18917;SDS011;9591;52.742;13.650;2023-10-31T11:51:34;3.20;;;1.70;;
18917;SDS011;9591;52.742;13.650;2023-10-31T11:54:22;2.23;;;1.70;;
18917;SDS011;9591;52.742;13.650;2023-10-31T11:57:09;2.53;;;1.40;;
18917;SDS011;9591;52.742;13.650;2023-10-31T11:59:56;1.87;;;1.77;;
18917;SDS011;9591;52.742;13.650;2023-10-31T12:02:44;2.40;;;1.60;;
18917;SDS011;9591;52.742;13.650;2023-10-31T12:05:50;1.60;;;1.50;;
18917;SDS011;9591;52.742;13.650;2023-10-31T12:08:39;3.03;;;1.70;;
18917;SDS011;9591;52.742;13.650;2023-10-31T12:11:28;1.83;;;1.73;;
18917;SDS011;9591;52.742;13.650;2023-10-31T12:14:17;2.13;;;2.00;;
18917;SDS011;9591;52.742;13.650;2023-10-31T12:17:06;2.83;;;2.17;;
18917;SDS011;9591;52.742;13.650;2023-10-31T12:19:55;3.60;;;2.33;;
18917;SDS011;9591;52.742;13.650;2023-10-31T12:22:43;1.93;;;1.77;;
18917;SDS011;9591;52.742;13.650;2023-10-31T12:25:30;4.07;;;1.80;;
18917;SDS011;9591;52.742;13.650;2023-10-31T12:28:23;1.83;;;1.73;;
18917;SDS011;9591;52.742;13.650;2023-10-31T12:31:11;3.37;;;2.00;;
18917;SDS011;9591;52.742;13.650;2023-10-31T12:33:58;3.23;;;1.83;;
18917;SDS011;9591;52.742;13.650;2023-10-31T12:36:51;6.00;;;1.67;;
18917;SDS011;9591;52.742;13.650;2023-10-31T12:39:39;1.63;;;1.53;;
18917;SDS011;9591;52.742;13.650;2023-10-31T12:42:26;2.50;;;1.70;;
18917;SDS011;9591;52.742;13.650;2023-10-31T12:45:18;7.37;;;1.70;;
18917;SDS011;9591;52.742;13.650;2023-10-31T12:48:06;1.70;;;1.40;;
18917;SDS011;9591;52.742;13.650;2023-10-31T12:51:05;1.83;;;1.50;;
18917;SDS011;9591;52.742;13.650;2023-10-31T12:53:54;1.53;;;1.27;;
18917;SDS011;9591;52.742;13.650;2023-10-31T12:56:41;1.50;;;1.30;;
18917;SDS011;9591;52.742;13.650;2023-10-31T12:59:29;1.20;;;1.20;;
18917;SDS011;9591;52.742;13.650;2023-10-31T13:02:17;1.17;;;1.13;;
18917;SDS011;9591;52.742;13.650;2023-10-31T13:05:08;1.33;;;1.23;;
18917;SDS011;9591;52.742;13.650;2023-10-31T13:07:57;3.17;;;1.17;;
18917;SDS011;9591;52.742;13.650;2023-10-31T13:10:46;0.87;;;0.87;;
18917;SDS011;9591;52.742;13.650;2023-10-31T13:13:33;0.93;;;0.93;;
18917;SDS011;9591;52.742;13.650;2023-10-31T13:16:20;3.70;;;1.10;;
18917;SDS011;9591;52.742;13.650;2023-10-31T13:19:08;1.10;;;0.93;;
18917;SDS011;9591;52.742;13.650;2023-10-31T13:21:55;2.60;;;0.87;;
18917;SDS011;9591;52.742;13.650;2023-10-31T13:24:42;3.80;;;0.83;;
18917;SDS011;9591;52.742;13.650;2023-10-31T13:27:29;1.13;;;1.13;;
18917;SDS011;9591;52.742;13.650;2023-10-31T13:30:16;6.67;;;1.20;;
18917;SDS011;9591;52.742;13.650;2023-10-31T13:33:04;2.53;;;0.97;;
18917;SDS011;9591;52.742;13.650;2023-10-31T13:35:52;3.13;;;0.90;;
18917;SDS011;9591;52.742;13.650;2023-10-31T13:38:39;0.80;;;0.80;;
18917;SDS011;9591;52.742;13.650;2023-10-31T13:41:27;1.13;;;0.90;;
18917;SDS011;9591;52.742;13.650;2023-10-31T13:44:14;3.33;;;0.97;;
18917;SDS011;9591;52.742;13.650;2023-10-31T13:47:01;1.80;;;0.90;;
18917;SDS011;9591;52.742;13.650;2023-10-31T13:49:48;0.80;;;0.80;;
18917;SDS011;9591;52.742;13.650;2023-10-31T13:52:36;3.37;;;1.07;;
18917;SDS011;9591;52.742;13.650;2023-10-31T13:55:24;1.57;;;1.23;;
18917;SDS011;9591;52.742;13.650;2023-10-31T13:58:11;3.23;;;1.10;;
18917;SDS011;9591;52.742;13.650;2023-10-31T14:00:58;1.10;;;1.10;;
18917;SDS011;9591;52.742;13.650;2023-10-31T14:03:45;0.97;;;0.97;;
18917;SDS011;9591;52.742;13.650;2023-10-31T14:06:32;5.67;;;1.30;;
18917;SDS011;9591;52.742;13.650;2023-10-31T14:09:20;1.17;;;1.17;;
18917;SDS011;9591;52.742;13.650;2023-10-31T14:12:07;2.77;;;0.90;;
18917;SDS011;9591;52.742;13.650;2023-10-31T14:14:54;1.97;;;1.10;;
18917;SDS011;9591;52.742;13.650;2023-10-31T14:17:41;2.37;;;1.47;;
18917;SDS011;9591;52.742;13.650;2023-10-31T14:20:29;5.17;;;1.27;;
18917;SDS011;9591;52.742;13.650;2023-10-31T14:23:16;1.00;;;1.00;;
18917;SDS011;9591;52.742;13.650;2023-10-31T14:26:04;0.80;;;0.80;;
18917;SDS011;9591;52.742;13.650;2023-10-31T14:28:51;1.10;;;1.10;;
18917;SDS011;9591;52.742;13.650;2023-10-31T14:31:39;1.90;;;1.20;;
18917;SDS011;9591;52.742;13.650;2023-10-31T14:34:26;1.10;;;1.10;;
18917;SDS011;9591;52.742;13.650;2023-10-31T14:37:13;1.20;;;1.20;;
18917;SDS011;9591;52.742;13.650;2023-10-31T14:40:00;1.10;;;1.00;;
18917;SDS011;9591;52.742;13.650;2023-10-31T14:42:49;1.20;;;1.20;;
18917;SDS011;9591;52.742;13.650;2023-10-31T14:45:36;3.60;;;1.00;;
18917;SDS011;9591;52.742;13.650;2023-10-31T14:48:23;1.07;;;1.07;;
18917;SDS011;9591;52.742;13.650;2023-10-31T14:51:10;2.70;;;1.10;;
18917;SDS011;9591;52.742;13.650;2023-10-31T14:53:57;1.00;;;1.00;;
18917;SDS011;9591;52.742;13.650;2023-10-31T14:56:46;4.63;;;1.17;;
18917;SDS011;9591;52.742;13.650;2023-10-31T14:59:34;2.77;;;1.00;;
18917;SDS011;9591;52.742;13.650;2023-10-31T15:02:20;6.57;;;1.40;;
18917;SDS011;9591;52.742;13.650;2023-10-31T15:05:07;3.60;;;1.00;;
18917;SDS011;9591;52.742;13.650;2023-10-31T15:07:56;1.20;;;1.10;;
18917;SDS011;9591;52.742;13.650;2023-10-31T15:10:43;1.73;;;1.67;;
18917;SDS011;9591;52.742;13.650;2023-10-31T15:13:30;0.80;;;0.80;;
18917;SDS011;9591;52.742;13.650;2023-10-31T15:16:18;3.60;;;0.93;;
18917;SDS011;9591;52.742;13.650;2023-10-31T15:19:05;2.17;;;0.73;;
18917;SDS011;9591;52.742;13.650;2023-10-31T15:21:52;1.73;;;0.90;;
18917;SDS011;9591;52.742;13.650;2023-10-31T15:24:40;1.10;;;1.00;;
18917;SDS011;9591;52.742;13.650;2023-10-31T15:27:26;0.90;;;0.90;;
18917;SDS011;9591;52.742;13.650;2023-10-31T15:30:13;1.20;;;1.10;;
18917;SDS011;9591;52.742;13.650;2023-10-31T15:33:02;1.00;;;1.00;;
18917;SDS011;9591;52.742;13.650;2023-10-31T15:35:49;1.10;;;1.10;;
18917;SDS011;9591;52.742;13.650;2023-10-31T15:38:36;0.60;;;0.60;;
18917;SDS011;9591;52.742;13.650;2023-10-31T15:41:23;0.83;;;0.80;;
18917;SDS011;9591;52.742;13.650;2023-10-31T15:44:10;1.93;;;0.87;;
18917;SDS011;9591;52.742;13.650;2023-10-31T15:46:57;6.57;;;1.10;;
18917;SDS011;9591;52.742;13.650;2023-10-31T15:49:45;1.23;;;0.80;;
18917;SDS011;9591;52.742;13.650;2023-10-31T15:52:32;0.77;;;0.77;;
18917;SDS011;9591;52.742;13.650;2023-10-31T15:55:19;1.23;;;0.93;;
18917;SDS011;9591;52.742;13.650;2023-10-31T15:58:06;1.07;;;1.07;;
18917;SDS011;9591;52.742;13.650;2023-10-31T16:00:53;3.17;;;1.03;;
18917;SDS011;9591;52.742;13.650;2023-10-31T16:03:40;0.80;;;0.80;;
18917;SDS011;9591;52.742;13.650;2023-10-31T16:06:29;0.73;;;0.73;;
18917;SDS011;9591;52.742;13.650;2023-10-31T16:09:16;4.53;;;1.10;;
18917;SDS011;9591;52.742;13.650;2023-10-31T16:12:03;1.90;;;0.90;;
18917;SDS011;9591;52.742;13.650;2023-10-31T16:14:52;1.17;;;1.10;;
18917;SDS011;9591;52.742;13.650;2023-10-31T16:17:41;4.37;;;1.10;;
18917;SDS011;9591;52.742;13.650;2023-10-31T16:20:34;3.07;;;1.10;;
18917;SDS011;9591;52.742;13.650;2023-10-31T16:23:27;0.90;;;0.90;;
18917;SDS011;9591;52.742;13.650;2023-10-31T16:26:14;1.50;;;1.10;;
18917;SDS011;9591;52.742;13.650;2023-10-31T16:29:02;1.23;;;1.00;;
18917;SDS011;9591;52.742;13.650;2023-10-31T16:31:49;1.30;;;1.20;;
18917;SDS011;9591;52.742;13.650;2023-10-31T16:34:36;1.40;;;1.20;;
18917;SDS011;9591;52.742;13.650;2023-10-31T16:37:23;5.63;;;1.30;;
18917;SDS011;9591;52.742;13.650;2023-10-31T16:40:12;2.93;;;1.10;;
18917;SDS011;9591;52.742;13.650;2023-10-31T16:43:00;2.17;;;1.00;;
18917;SDS011;9591;52.742;13.650;2023-10-31T16:45:47;2.10;;;1.10;;